createdAt,value
2019-01-18T00:02:32.208Z,27.70
2019-01-18T00:05:03.435Z,29.07
2019-01-18T00:07:34.193Z,28.10
2019-01-18T00:10:08.342Z,26.40
2019-01-18T00:12:39.703Z,27.63
2019-01-18T00:15:11.150Z,38.10
2019-01-18T00:17:42.090Z,36.10
2019-01-18T00:20:13.307Z,28.13
2019-01-18T00:22:44.597Z,24.70
2019-01-18T00:25:25.617Z,22.93
2019-01-18T00:27:57.172Z,20.70
2019-01-18T00:30:28.338Z,19.30
2019-01-18T00:32:59.459Z,20.23
2019-01-18T00:35:30.582Z,19.87
2019-01-18T00:38:01.951Z,21.63
2019-01-18T00:40:33.258Z,17.87
2019-01-18T00:43:04.336Z,21.33
2019-01-18T00:45:35.513Z,16.27
2019-01-18T00:48:06.555Z,18.00
2019-01-18T00:50:37.288Z,24.00
2019-01-18T00:53:08.530Z,20.00
2019-01-18T00:55:39.297Z,17.53
2019-01-18T00:58:10.212Z,19.17
2019-01-18T01:00:41.518Z,13.23
2019-01-18T01:03:12.605Z,15.50
2019-01-18T01:05:43.860Z,11.33
2019-01-18T01:08:15.599Z,17.40
2019-01-18T01:10:47.395Z,12.30
2019-01-18T01:13:18.702Z,10.90
2019-01-18T01:15:49.672Z,12.10
2019-01-18T01:18:20.788Z,14.20
2019-01-18T01:20:52.002Z,13.83
2019-01-18T01:23:23.189Z,14.50
2019-01-18T01:25:54.218Z,13.40
2019-01-18T01:28:25.305Z,13.50
2019-01-18T01:30:56.339Z,14.33
2019-01-18T01:33:27.478Z,14.13
2019-01-18T01:35:58.488Z,15.70
2019-01-18T01:38:29.814Z,14.80
2019-01-18T01:41:01.028Z,15.10
2019-01-18T01:43:32.187Z,12.97
2019-01-18T01:46:03.429Z,12.03
2019-01-18T01:48:34.185Z,9.53
2019-01-18T01:51:05.330Z,7.00
2019-01-18T01:53:36.087Z,7.57
2019-01-18T01:56:07.135Z,6.60
2019-01-18T01:58:37.804Z,6.00
2019-01-18T02:01:08.957Z,5.20
2019-01-18T02:03:40.126Z,4.60
2019-01-18T02:06:11.242Z,4.93
2019-01-18T02:08:42.208Z,4.67
2019-01-18T02:11:13.453Z,4.30
2019-01-18T02:13:44.513Z,5.40
2019-01-18T02:16:15.876Z,4.60
2019-01-18T02:18:47.024Z,5.70
2019-01-18T02:21:18.203Z,5.70
2019-01-18T02:23:49.240Z,4.40
2019-01-18T02:26:20.485Z,4.90
2019-01-18T02:28:51.468Z,4.90
2019-01-18T02:31:22.423Z,5.97
2019-01-18T02:33:53.373Z,5.23
2019-01-18T02:36:24.382Z,5.50
2019-01-18T02:38:55.454Z,5.27
2019-01-18T02:41:26.642Z,6.00
2019-01-18T02:43:57.550Z,5.80
2019-01-18T02:46:28.568Z,7.30
2019-01-18T02:48:59.629Z,7.20
2019-01-18T02:51:31.900Z,12.50
2019-01-18T02:54:02.977Z,10.57
2019-01-18T02:56:34.083Z,11.37
2019-01-18T02:59:05.128Z,11.87
2019-01-18T03:01:35.806Z,10.00
2019-01-18T03:04:06.840Z,11.50
2019-01-18T03:06:50.440Z,10.40
2019-01-18T03:09:21.299Z,11.87
2019-01-18T03:11:52.801Z,7.77
2019-01-18T03:14:24.129Z,10.10
2019-01-18T03:16:55.012Z,13.17
2019-01-18T03:19:26.302Z,10.10
2019-01-18T03:21:57.625Z,9.63
2019-01-18T03:24:28.768Z,11.70
2019-01-18T03:26:59.858Z,10.60
2019-01-18T03:29:30.615Z,9.27
2019-01-18T03:32:01.672Z,11.20
2019-01-18T03:34:32.604Z,11.33
2019-01-18T03:37:03.584Z,11.47
2019-01-18T03:39:34.544Z,10.70
2019-01-18T03:42:06.720Z,10.97
2019-01-18T03:44:37.795Z,15.30
2019-01-18T03:47:08.957Z,12.77
2019-01-18T03:49:39.600Z,15.80
2019-01-18T03:52:12.524Z,21.80
2019-01-18T03:54:44.967Z,17.80
2019-01-18T03:57:15.971Z,20.37
2019-01-18T03:59:47.030Z,20.70
2019-01-18T04:02:18.101Z,20.47
2019-01-18T04:04:49.177Z,18.73
2019-01-18T04:07:20.418Z,19.87
2019-01-18T04:09:51.539Z,21.20
2019-01-18T04:12:22.671Z,20.60
2019-01-18T04:14:53.781Z,19.00
2019-01-18T04:17:25.071Z,23.37
2019-01-18T04:19:56.044Z,21.63
2019-01-18T04:22:27.322Z,27.43
2019-01-18T04:24:58.482Z,25.00
2019-01-18T04:27:30.444Z,28.73
2019-01-18T04:30:02.783Z,24.10
2019-01-18T04:32:33.424Z,28.63
2019-01-18T04:35:04.651Z,27.07
2019-01-18T04:37:35.903Z,29.20
2019-01-18T04:40:09.060Z,27.37
2019-01-18T04:42:39.986Z,30.30
2019-01-18T04:45:10.970Z,27.90
2019-01-18T04:47:42.236Z,26.40
2019-01-18T04:50:18.574Z,25.57
2019-01-18T04:52:49.723Z,27.23
2019-01-18T04:55:20.575Z,27.50
2019-01-18T04:57:51.830Z,24.73
2019-01-18T05:00:24.803Z,25.30
2019-01-18T05:02:56.212Z,28.20
2019-01-18T05:05:27.347Z,27.10
2019-01-18T05:07:58.551Z,20.80
2019-01-18T05:10:30.082Z,23.07
2019-01-18T05:13:01.336Z,22.00
2019-01-18T05:15:33.253Z,27.17
2019-01-18T05:18:04.185Z,24.43
2019-01-18T05:20:34.834Z,26.20
2019-01-18T05:23:06.040Z,22.43
2019-01-18T05:25:37.056Z,25.53
2019-01-18T05:28:08.195Z,22.47
2019-01-18T05:30:39.266Z,22.43
2019-01-18T05:33:10.339Z,23.70
2019-01-18T05:35:41.130Z,22.23
2019-01-18T05:38:12.101Z,21.43
2019-01-18T05:40:50.442Z,24.00
2019-01-18T05:43:21.688Z,25.90
2019-01-18T05:45:52.867Z,18.53
2019-01-18T05:48:24.069Z,23.30
2019-01-18T05:50:55.213Z,25.90
2019-01-18T05:53:26.558Z,21.43
2019-01-18T05:55:57.513Z,26.13
2019-01-18T05:58:28.690Z,22.37
2019-01-18T06:01:07.232Z,22.53
2019-01-18T06:03:44.198Z,21.67
2019-01-18T06:06:15.617Z,21.77
2019-01-18T06:08:46.603Z,20.93
2019-01-18T06:11:17.459Z,24.37
2019-01-18T06:13:48.400Z,24.57
2019-01-18T06:16:19.497Z,24.30
2019-01-18T06:18:50.443Z,23.73
2019-01-18T06:21:21.628Z,22.27
2019-01-18T06:23:54.627Z,26.80
2019-01-18T06:26:25.636Z,25.63
2019-01-18T06:28:56.881Z,23.83
2019-01-18T06:31:28.060Z,26.77
2019-01-18T06:33:59.328Z,25.53
2019-01-18T06:36:30.680Z,27.30
2019-01-18T06:39:01.673Z,22.77
2019-01-18T06:41:38.776Z,24.43
2019-01-18T06:44:09.864Z,26.17
2019-01-18T06:46:40.848Z,35.37
2019-01-18T06:49:12.699Z,30.20
2019-01-18T06:51:43.579Z,27.53
2019-01-18T06:54:14.704Z,26.40
2019-01-18T06:56:46.137Z,29.80
2019-01-18T06:59:17.134Z,33.03
2019-01-18T07:01:48.107Z,30.70
2019-01-18T07:04:19.462Z,35.37
2019-01-18T07:06:50.607Z,24.87
2019-01-18T07:09:21.602Z,31.73
2019-01-18T07:11:53.156Z,27.77
2019-01-18T07:14:24.157Z,36.10
2019-01-18T07:16:55.286Z,37.97
2019-01-18T07:19:26.577Z,30.33
2019-01-18T07:21:57.486Z,41.47
2019-01-18T07:24:30.287Z,26.93
2019-01-18T07:27:03.621Z,35.90
2019-01-18T07:29:34.470Z,35.57
2019-01-18T07:32:05.878Z,29.03
2019-01-18T07:34:36.638Z,24.43
2019-01-18T07:37:07.735Z,25.23
2019-01-18T07:39:38.775Z,23.47
2019-01-18T07:42:09.953Z,28.60
2019-01-18T07:44:41.046Z,37.73
2019-01-18T07:47:12.602Z,29.67
2019-01-18T07:49:43.849Z,26.47
2019-01-18T07:52:14.802Z,25.30
2019-01-18T07:54:45.972Z,26.50
2019-01-18T07:57:17.288Z,33.23
2019-01-18T07:59:48.465Z,30.67
2019-01-18T08:02:19.452Z,38.20
2019-01-18T08:04:50.868Z,22.63
2019-01-18T08:07:23.841Z,32.33
2019-01-18T08:09:54.897Z,39.37
2019-01-18T08:12:25.926Z,36.10
2019-01-18T08:14:57.229Z,31.27
2019-01-18T08:17:28.427Z,38.03
2019-01-18T08:19:59.560Z,38.63
2019-01-18T08:22:31.047Z,26.10
2019-01-18T08:25:02.227Z,22.70
2019-01-18T08:27:32.895Z,25.70
2019-01-18T08:30:07.773Z,27.73
2019-01-18T08:32:38.582Z,25.83
2019-01-18T08:35:10.040Z,22.00
2019-01-18T08:37:41.183Z,26.20
2019-01-18T08:40:14.755Z,28.53
2019-01-18T08:42:46.054Z,25.07
2019-01-18T08:45:28.736Z,25.47
2019-01-18T08:47:59.914Z,21.27
2019-01-18T08:50:34.424Z,25.32
2019-01-18T08:53:05.626Z,24.87
2019-01-18T08:55:37.518Z,26.07
2019-01-18T08:58:08.581Z,23.60
2019-01-18T09:00:39.610Z,32.40
2019-01-18T09:03:10.583Z,26.47
2019-01-18T09:05:42.640Z,27.10
2019-01-18T09:08:13.803Z,28.93
2019-01-18T09:10:44.866Z,24.33
2019-01-18T09:13:15.879Z,26.83
2019-01-18T09:15:47.177Z,30.57
2019-01-18T09:22:24.299Z,28.50
2019-01-18T09:25:00.521Z,23.53
2019-01-18T09:27:31.795Z,32.03
2019-01-18T09:30:02.900Z,27.00
2019-01-18T09:32:33.666Z,31.37
2019-01-18T09:35:05.357Z,25.67
2019-01-18T09:37:36.217Z,27.73
2019-01-18T09:40:09.673Z,28.03
2019-01-18T09:42:41.270Z,28.20
2019-01-18T09:45:12.575Z,32.00
2019-01-18T09:47:45.362Z,24.60
2019-01-18T09:50:18.450Z,26.37
2019-01-18T09:52:50.609Z,28.27
2019-01-18T09:55:22.922Z,29.50
2019-01-18T09:57:54.095Z,23.87
2019-01-18T10:00:27.446Z,26.00
2019-01-18T10:02:59.186Z,24.90
2019-01-18T10:05:31.107Z,24.67
2019-01-18T10:08:02.491Z,25.73
2019-01-18T10:10:33.573Z,23.10
2019-01-18T10:13:04.673Z,28.03
2019-01-18T10:15:40.718Z,25.90
2019-01-18T10:18:12.209Z,25.93
2019-01-18T10:20:43.320Z,25.43
2019-01-18T10:23:14.369Z,31.70
2019-01-18T10:25:47.155Z,24.47
2019-01-18T10:28:18.388Z,24.47
2019-01-18T10:30:49.537Z,23.33
2019-01-18T10:33:20.830Z,25.20
2019-01-18T10:35:54.448Z,27.40
2019-01-18T10:38:25.729Z,22.60
2019-01-18T10:40:57.273Z,30.37
2019-01-18T10:43:28.528Z,23.70
2019-01-18T10:45:59.499Z,22.57
2019-01-18T10:48:31.512Z,26.77
2019-01-18T10:51:02.604Z,26.00
2019-01-18T10:53:33.439Z,25.97
2019-01-18T10:56:04.737Z,23.90
2019-01-18T10:58:39.120Z,25.70
2019-01-18T11:01:10.632Z,34.47
2019-01-18T11:03:41.900Z,30.63
2019-01-18T11:06:13.139Z,22.30
2019-01-18T11:08:44.713Z,32.13
2019-01-18T11:11:15.944Z,29.30
2019-01-18T11:13:47.365Z,23.17
2019-01-18T11:16:18.512Z,25.10
2019-01-18T11:18:50.158Z,32.30
2019-01-18T11:21:23.681Z,27.53
2019-01-18T11:23:55.051Z,22.83
2019-01-18T11:26:26.421Z,26.00
2019-01-18T11:28:57.573Z,28.27
2019-01-18T11:31:28.824Z,26.40
2019-01-18T11:33:59.996Z,22.17
2019-01-18T11:36:31.855Z,32.80
2019-01-18T11:39:04.386Z,25.60
2019-01-18T11:41:36.241Z,22.33
2019-01-18T11:44:07.635Z,25.27
2019-01-18T11:46:38.650Z,28.60
2019-01-18T11:49:09.966Z,24.13
2019-01-18T11:51:41.184Z,24.70
2019-01-18T11:54:12.181Z,28.67
2019-01-18T11:56:43.662Z,28.37
2019-01-18T11:59:15.166Z,25.47
2019-01-18T12:01:48.217Z,22.73
2019-01-18T12:04:19.427Z,27.43
2019-01-18T12:06:50.486Z,26.90
2019-01-18T12:09:21.555Z,28.03
2019-01-18T12:11:52.606Z,25.37
2019-01-18T12:14:23.621Z,29.03
2019-01-18T12:16:54.886Z,30.90
2019-01-18T12:19:26.238Z,26.30
2019-01-18T12:21:57.566Z,28.93
2019-01-18T12:24:28.608Z,25.20
2019-01-18T12:27:00.112Z,27.83
2019-01-18T12:29:31.838Z,24.32
2019-01-18T12:32:03.184Z,27.80
2019-01-18T12:34:33.920Z,27.33
2019-01-18T12:37:05.231Z,28.37
2019-01-18T12:39:36.054Z,25.03
2019-01-18T12:42:07.186Z,25.37
2019-01-18T12:44:38.977Z,27.50
2019-01-18T12:47:10.253Z,28.97
2019-01-18T12:49:41.348Z,28.20
2019-01-18T12:52:12.375Z,30.67
2019-01-18T12:54:58.756Z,31.83
2019-01-18T12:57:30.079Z,28.40
2019-01-18T13:00:01.748Z,26.37
2019-01-18T13:02:35.479Z,25.00
2019-01-18T13:05:07.166Z,26.90
2019-01-18T13:07:37.956Z,29.53
2019-01-18T13:10:12.218Z,21.40
2019-01-18T13:12:42.440Z,24.30
2019-01-18T13:15:23.033Z,28.50
2019-01-18T13:17:54.136Z,23.93
2019-01-18T13:20:25.254Z,27.67
2019-01-18T13:22:56.619Z,27.70
2019-01-18T13:25:27.754Z,26.27
2019-01-18T13:27:59.955Z,24.30
2019-01-18T13:30:32.156Z,21.00
2019-01-18T13:33:03.338Z,22.37
2019-01-18T13:35:34.016Z,24.80
2019-01-18T13:38:05.462Z,24.00
2019-01-18T13:40:36.601Z,20.70
2019-01-18T13:43:07.945Z,25.50
2019-01-18T13:45:38.934Z,25.50
2019-01-18T13:48:10.263Z,25.63
2019-01-18T13:50:41.611Z,23.07
2019-01-18T13:53:12.925Z,15.27
2019-01-18T13:55:44.174Z,18.80
2019-01-18T13:58:15.786Z,19.70
2019-01-18T14:00:50.144Z,25.30
2019-01-18T14:03:21.219Z,29.10
2019-01-18T14:05:52.314Z,20.07
2019-01-18T14:12:15.980Z,22.40
2019-01-18T14:14:47.661Z,27.77
2019-01-18T14:17:18.914Z,25.80
2019-01-18T14:19:50.033Z,22.27
2019-01-18T14:22:21.289Z,21.83
2019-01-18T14:24:52.585Z,30.53
2019-01-18T14:27:23.769Z,22.10
2019-01-18T14:29:55.075Z,24.10
2019-01-18T14:32:26.468Z,20.90
2019-01-18T14:34:58.090Z,18.77
2019-01-18T14:37:29.104Z,22.43
2019-01-18T14:40:00.796Z,21.23
2019-01-18T14:42:32.626Z,22.97
2019-01-18T14:45:03.910Z,18.10
2019-01-18T14:47:34.588Z,17.73
2019-01-18T14:50:07.171Z,17.80
2019-01-18T14:52:38.348Z,19.17
2019-01-18T14:55:09.840Z,20.87
2019-01-18T14:57:40.786Z,22.90
2019-01-18T15:00:16.358Z,19.07
2019-01-18T15:02:47.696Z,23.07
2019-01-18T15:05:19.045Z,25.57
2019-01-18T15:07:50.434Z,20.40
2019-01-18T15:10:22.705Z,20.67
2019-01-18T15:12:56.585Z,19.80
2019-01-18T15:15:29.315Z,19.70
2019-01-18T15:18:00.358Z,15.88
2019-01-18T15:20:33.173Z,17.90
2019-01-18T15:23:04.605Z,16.30
2019-01-18T15:25:35.737Z,17.67
2019-01-18T15:28:07.132Z,16.50
2019-01-18T15:30:38.163Z,19.13
2019-01-18T15:33:09.630Z,20.53
2019-01-18T15:35:41.461Z,18.90
2019-01-18T15:38:13.101Z,12.37
2019-01-18T15:40:47.609Z,30.97
2019-01-18T15:43:21.217Z,14.33
2019-01-18T15:45:52.956Z,17.20
2019-01-18T15:48:45.115Z,11.23
2019-01-18T15:51:16.217Z,16.10
2019-01-18T15:54:08.078Z,19.53
2019-01-18T15:56:38.918Z,11.87
2019-01-18T15:59:09.910Z,18.50
2019-01-18T16:01:41.058Z,18.27
2019-01-18T16:04:12.156Z,11.90
2019-01-18T16:06:43.307Z,12.83
2019-01-18T16:09:14.574Z,13.87
2019-01-18T16:11:45.706Z,12.00
2019-01-18T16:14:16.955Z,14.90
2019-01-18T16:16:51.669Z,15.90
2019-01-18T16:19:22.946Z,14.03
2019-01-18T16:21:54.271Z,16.07
2019-01-18T16:24:25.633Z,12.37
2019-01-18T16:26:56.888Z,10.00
2019-01-18T16:29:28.031Z,13.33
2019-01-18T16:31:59.231Z,15.37
2019-01-18T16:34:30.652Z,14.93
2019-01-18T16:37:02.130Z,9.27
2019-01-18T16:39:33.424Z,14.57
2019-01-18T16:42:09.340Z,10.80
2019-01-18T16:44:40.223Z,16.83
2019-01-18T16:47:11.678Z,10.00
2019-01-18T16:49:42.859Z,22.10
2019-01-18T16:52:15.062Z,16.50
2019-01-18T16:54:46.501Z,13.60
2019-01-18T16:57:18.755Z,14.87
2019-01-18T16:59:53.366Z,10.68
2019-01-18T17:02:28.408Z,9.03
2019-01-18T17:05:03.598Z,11.70
2019-01-18T17:07:34.770Z,10.80
2019-01-18T17:10:07.229Z,10.00
2019-01-18T17:12:39.050Z,11.57
2019-01-18T17:15:11.210Z,9.33
2019-01-18T17:17:42.634Z,9.43
2019-01-18T17:20:17.044Z,7.77
2019-01-18T17:22:48.802Z,10.43
2019-01-18T17:25:20.147Z,10.97
2019-01-18T17:27:51.500Z,10.10
2019-01-18T17:30:23.126Z,10.30
2019-01-18T17:32:55.784Z,7.67
2019-01-18T17:35:42.744Z,10.60
2019-01-18T17:39:19.262Z,9.77
2019-01-18T17:42:33.804Z,18.07
2019-01-18T17:46:07.036Z,14.30
2019-01-18T17:49:27.775Z,11.70
2019-01-18T17:52:32.649Z,14.90
2019-01-18T17:55:16.901Z,9.27
2019-01-18T17:58:21.214Z,18.00
2019-01-18T18:01:30.303Z,14.10
2019-01-18T18:04:33.680Z,12.87
2019-01-18T18:07:28.942Z,13.87
2019-01-18T18:10:26.007Z,14.00
2019-01-18T18:13:35.445Z,10.50
2019-01-18T18:17:14.968Z,14.90
2019-01-18T18:20:12.386Z,10.47
2019-01-18T18:22:58.947Z,10.28
2019-01-18T18:26:06.884Z,12.13
2019-01-18T18:29:21.802Z,11.70
2019-01-18T18:32:34.103Z,14.90
2019-01-18T18:35:43.741Z,12.40
2019-01-18T18:38:44.050Z,9.70
2019-01-18T18:41:58.112Z,14.97
2019-01-18T18:45:06.025Z,12.53
2019-01-18T18:48:23.868Z,18.98
2019-01-18T18:51:37.505Z,11.87
2019-01-18T18:54:46.230Z,16.37
2019-01-18T18:57:33.276Z,13.33
2019-01-18T19:00:15.496Z,19.00
2019-01-18T19:03:13.460Z,17.03
2019-01-18T19:06:24.082Z,17.83
2019-01-18T19:09:35.747Z,14.40
2019-01-18T19:12:54.355Z,14.57
2019-01-18T19:16:05.147Z,14.53
2019-01-18T19:19:13.713Z,14.37
2019-01-18T19:22:41.062Z,14.30
2019-01-18T19:25:50.424Z,19.67
2019-01-18T19:29:06.007Z,17.57
2019-01-18T19:32:06.290Z,14.83
2019-01-18T19:35:05.415Z,13.27
2019-01-18T19:38:07.985Z,16.20
2019-01-18T19:40:57.694Z,15.33
2019-01-18T19:44:00.325Z,16.73
2019-01-18T19:46:57.453Z,15.93
2019-01-18T19:50:04.365Z,16.93
2019-01-18T19:52:56.856Z,13.80
2019-01-18T19:56:20.827Z,16.70
2019-01-18T19:59:15.445Z,17.40
2019-01-18T20:02:29.796Z,17.37
2019-01-18T20:05:36.887Z,15.93
2019-01-18T20:08:34.924Z,18.37
2019-01-18T20:11:56.465Z,19.47
2019-01-18T20:15:20.029Z,13.30
2019-01-18T20:18:20.643Z,16.80
2019-01-18T20:21:33.220Z,21.77
2019-01-18T20:25:12.702Z,19.60
2019-01-18T20:28:10.391Z,23.30
2019-01-18T20:31:13.063Z,26.50
2019-01-18T20:34:20.082Z,21.57
2019-01-18T20:37:33.505Z,24.23
2019-01-18T20:40:33.275Z,20.87
2019-01-18T20:43:48.189Z,19.07
2019-01-18T20:46:54.608Z,19.23
2019-01-18T20:49:49.371Z,22.70
2019-01-18T20:52:56.459Z,19.57
2019-01-18T20:56:08.301Z,19.13
2019-01-18T20:59:22.029Z,25.60
2019-01-18T21:02:36.556Z,19.13
2019-01-18T21:05:53.932Z,19.07
2019-01-18T21:08:52.586Z,20.43
2019-01-18T21:11:49.383Z,20.40
2019-01-18T21:15:03.103Z,16.83
2019-01-18T21:17:54.363Z,19.10
2019-01-18T21:20:46.907Z,17.00
2019-01-18T21:24:04.666Z,21.00
2019-01-18T21:27:16.814Z,14.53
2019-01-18T21:30:20.181Z,18.07
2019-01-18T21:33:50.141Z,16.93
2019-01-18T21:36:47.502Z,24.97
2019-01-18T21:40:07.905Z,15.70
2019-01-18T21:43:14.984Z,14.40
2019-01-18T21:46:15.628Z,12.07
2019-01-18T21:49:14.350Z,19.53
2019-01-18T21:52:26.145Z,14.13
2019-01-18T21:55:26.957Z,16.40
2019-01-18T21:58:17.666Z,18.13
2019-01-18T22:01:29.819Z,18.83
2019-01-18T22:04:40.660Z,21.17
2019-01-18T22:07:31.706Z,18.67
2019-01-18T22:10:14.942Z,21.50
2019-01-18T22:13:09.256Z,17.93
2019-01-18T22:16:29.382Z,23.80
2019-01-18T22:19:50.696Z,20.77
2019-01-18T22:22:39.885Z,24.67
2019-01-18T22:25:44.965Z,19.70
2019-01-18T22:28:55.932Z,17.60
2019-01-18T22:32:17.729Z,22.97
2019-01-18T22:35:25.771Z,17.23
2019-01-18T22:38:15.255Z,15.43
2019-01-18T22:41:18.165Z,21.30
2019-01-18T22:44:29.926Z,18.10
2019-01-18T22:47:20.282Z,19.70
2019-01-18T22:50:37.672Z,18.50
2019-01-18T22:53:40.960Z,20.43
2019-01-18T22:56:24.539Z,20.63
2019-01-18T22:59:45.302Z,17.00
2019-01-18T23:02:39.801Z,19.90
2019-01-18T23:05:54.601Z,18.33
2019-01-18T23:09:30.869Z,17.60
2019-01-18T23:12:38.420Z,18.50
2019-01-18T23:15:43.292Z,19.50
2019-01-18T23:18:48.599Z,17.90
2019-01-18T23:21:34.701Z,29.10
2019-01-18T23:24:49.631Z,17.77
2019-01-18T23:28:07.678Z,24.27
2019-01-18T23:31:08.862Z,22.93
2019-01-18T23:34:10.291Z,22.97
2019-01-18T23:37:09.467Z,20.97
2019-01-18T23:40:26.171Z,19.60
2019-01-18T23:43:38.920Z,22.40
2019-01-18T23:46:49.454Z,17.23
2019-01-18T23:50:07.443Z,16.23
2019-01-18T23:53:15.143Z,16.60
2019-01-18T23:56:39.306Z,18.73
